Time;durP1;ratioP1;P1;durP2;ratioP2;P2;SDS_P1;SDS_P2;PMS_P1;PMS_P2;Temp;Humidity;BMP_temperature;BMP_pressure;BME280_temperature;BME280_humidity;BME280_pressure;Samples;Min_cycle;Max_cycle;Signal;HPM_P1;HPM_P2
2022/04/19 00:00:16;;;;;;;73.78;7.18;;;;;;;5.97;100.00;97669.72;4998196;28;20026;-57
2022/04/19 00:02:42;;;;;;;104.85;8.95;;;;;;;6.09;100.00;97670.25;5001323;28;20038;-57
2022/04/19 00:05:09;;;;;;;101.35;8.57;;;;;;;6.04;100.00;97669.53;4998558;28;20574;-57
2022/04/19 00:07:35;;;;;;;96.63;8.20;;;;;;;5.71;100.00;97659.19;4999937;28;20018;-56
2022/04/19 00:10:00;;;;;;;86.30;7.65;;;;;;;5.66;100.00;97661.91;5000414;28;20042;-58
2022/04/19 00:12:26;;;;;;;112.95;8.95;;;;;;;5.68;100.00;97659.25;4998289;28;20148;-58
2022/04/19 00:14:51;;;;;;;134.68;9.68;;;;;;;5.37;100.00;97666.09;4997676;28;20084;-58
2022/04/19 00:17:16;;;;;;;98.88;8.13;;;;;;;5.29;100.00;97655.06;5000427;28;20038;-58
2022/04/19 00:19:41;;;;;;;115.47;8.60;;;;;;;5.42;100.00;97655.59;4998646;28;20026;-61
2022/04/19 00:22:07;;;;;;;103.50;8.45;;;;;;;5.45;100.00;97657.28;4999115;28;20057;-58
2022/04/19 00:24:32;;;;;;;105.72;8.52;;;;;;;5.76;100.00;97649.56;4997576;28;20037;-58
2022/04/19 00:26:58;;;;;;;134.48;9.85;;;;;;;5.59;100.00;97644.84;4995057;28;20042;-58
2022/04/19 00:29:23;;;;;;;106.63;8.43;;;;;;;5.90;100.00;97646.56;4996900;28;20138;-57
2022/04/19 00:31:48;;;;;;;104.63;8.15;;;;;;;5.94;100.00;97636.09;4998283;28;20072;-57
2022/04/19 00:34:15;;;;;;;100.38;8.48;;;;;;;5.95;100.00;97639.53;4998984;28;20049;-57
2022/04/19 00:36:40;;;;;;;96.15;8.15;;;;;;;5.91;100.00;97640.50;4998976;28;20578;-57
2022/04/19 00:39:06;;;;;;;103.90;7.80;;;;;;;6.23;100.00;97637.06;5001015;28;20038;-56
2022/04/19 00:41:31;;;;;;;103.60;7.68;;;;;;;6.13;100.00;97641.63;4999453;28;20138;-56
2022/04/19 00:43:56;;;;;;;124.50;8.60;;;;;;;6.41;100.00;97629.59;4996931;28;20033;-56
2022/04/19 00:46:21;;;;;;;112.07;8.50;;;;;;;6.13;100.00;97626.09;4999399;28;20046;-56
2022/04/19 00:48:47;;;;;;;94.95;7.82;;;;;;;5.77;100.00;97627.94;4999700;28;20752;-57
2022/04/19 00:51:13;;;;;;;101.72;7.65;;;;;;;6.20;100.00;97616.41;4999460;28;20034;-56
2022/04/19 00:53:42;;;;;;;89.78;7.53;;;;;;;6.07;100.00;97620.25;5000074;28;20080;-55
2022/04/19 00:56:07;;;;;;;105.97;7.75;;;;;;;6.52;100.00;97618.00;4996386;28;20037;-57
2022/04/19 00:58:33;;;;;;;93.60;7.45;;;;;;;6.07;100.00;97615.09;4996815;28;20712;-56
2022/04/19 01:01:00;;;;;;;94.65;8.10;;;;;;;5.94;100.00;97610.22;4998558;28;20041;-57
2022/04/19 01:03:25;;;;;;;85.65;7.72;;;;;;;5.82;100.00;97613.13;4998411;28;20065;-57
2022/04/19 01:05:53;;;;;;;78.55;7.38;;;;;;;6.17;100.00;97611.31;4997492;28;20152;-56
2022/04/19 01:08:19;;;;;;;113.30;9.20;;;;;;;5.78;100.00;97614.13;4997296;28;20033;-57
2022/04/19 01:10:45;;;;;;;114.80;9.05;;;;;;;5.72;100.00;97614.31;4997209;28;20131;-57
2022/04/19 01:13:19;;;;;;;104.13;8.38;;;;;;;5.21;100.00;97613.91;4998563;28;20030;-57
2022/04/19 01:15:45;;;;;;;83.97;7.57;;;;;;;5.36;100.00;97612.66;4995960;28;20034;-57
2022/04/19 01:18:11;;;;;;;78.40;7.18;;;;;;;5.23;100.00;97606.09;4997577;28;20119;-56
2022/04/19 01:20:38;;;;;;;85.03;7.68;;;;;;;5.19;100.00;97610.50;4999512;28;20045;-57
2022/04/19 01:23:04;;;;;;;70.38;6.85;;;;;;;5.53;100.00;97609.63;5000199;28;20092;-56
2022/04/19 01:25:29;;;;;;;90.05;7.72;;;;;;;5.29;100.00;97605.94;4997811;28;20399;-57
2022/04/19 01:27:55;;;;;;;83.18;7.90;;;;;;;5.58;100.00;97602.56;5001090;28;20381;-55
2022/04/19 01:30:20;;;;;;;88.60;7.68;;;;;;;5.56;100.00;97599.19;4998414;28;20026;-56
2022/04/19 01:32:46;;;;;;;78.70;7.28;;;;;;;5.45;100.00;97600.38;4997934;28;20026;-55
2022/04/19 01:35:19;;;;;;;87.50;8.25;;;;;;;5.48;100.00;97600.31;4997992;28;20028;-57
2022/04/19 01:37:49;;;;;;;77.05;7.72;;;;;;;5.27;100.00;97604.28;4999609;28;20017;-56
2022/04/19 01:40:18;;;;;;;82.55;7.25;;;;;;;5.95;100.00;97609.34;4998073;28;20041;-57
2022/04/19 01:42:49;;;;;;;93.40;7.40;;;;;;;6.23;100.00;97595.59;5001225;28;20899;-55
2022/04/19 01:45:25;;;;;;;80.50;7.40;;;;;;;5.77;100.00;97590.00;4998355;28;20030;-58
2022/04/19 01:47:56;;;;;;;91.85;8.35;;;;;;;5.19;100.00;97589.81;4998108;28;20069;-56
2022/04/19 01:50:22;;;;;;;91.85;7.85;;;;;;;5.93;100.00;97582.63;4997358;28;20018;-56
2022/04/19 01:52:49;;;;;;;93.25;8.32;;;;;;;5.80;100.00;97582.13;4999379;28;20022;-56
2022/04/19 01:55:16;;;;;;;77.10;8.02;;;;;;;5.69;100.00;97578.16;4996733;28;20048;-57
2022/04/19 01:57:48;;;;;;;100.40;8.80;;;;;;;5.54;100.00;97584.59;4998072;28;20136;-57
2022/04/19 02:00:15;;;;;;;83.15;8.15;;;;;;;5.29;100.00;97584.41;4998416;28;20034;-57
2022/04/19 02:02:43;;;;;;;81.47;7.80;;;;;;;5.51;100.00;97580.34;4998240;28;20030;-57
2022/04/19 02:05:08;;;;;;;98.07;8.02;;;;;;;5.48;100.00;97571.84;4995482;28;20026;-56
2022/04/19 02:07:38;;;;;;;75.18;7.47;;;;;;;5.73;100.00;97566.81;4999812;28;20029;-56
2022/04/19 02:10:04;;;;;;;81.63;7.90;;;;;;;5.56;100.00;97572.47;4995173;28;20026;-56
2022/04/19 02:12:31;;;;;;;79.10;7.20;;;;;;;5.66;100.00;97573.06;4997315;28;20052;-56
2022/04/19 02:14:57;;;;;;;110.43;8.68;;;;;;;5.69;100.00;97573.81;4997407;28;20023;-57
2022/04/19 02:17:23;;;;;;;78.18;7.80;;;;;;;5.46;100.00;97574.47;5000472;28;20038;-56
2022/04/19 02:20:09;;;;;;;90.97;8.40;;;;;;;5.39;100.00;97570.34;4997099;28;20177;-57
2022/04/19 02:22:36;;;;;;;88.95;7.63;;;;;;;5.30;100.00;97568.03;4977990;28;20785;-56
2022/04/19 02:25:02;;;;;;;97.97;7.97;;;;;;;5.44;100.00;97573.66;4983741;28;20172;-56
2022/04/19 02:27:30;;;;;;;76.68;7.40;;;;;;;5.65;100.00;97566.19;4999254;28;20072;-56
2022/04/19 02:29:55;;;;;;;136.07;10.35;;;;;;;5.47;100.00;97570.13;4997922;28;20082;-57
2022/04/19 02:32:23;;;;;;;67.00;6.78;;;;;;;5.62;100.00;97566.28;5002110;28;20046;-57
2022/04/19 02:34:52;;;;;;;100.72;7.93;;;;;;;5.35;100.00;97568.75;4999540;28;20051;-56
2022/04/19 02:37:18;;;;;;;86.18;7.68;;;;;;;5.05;100.00;97576.41;5000430;28;20034;-57
2022/04/19 02:39:46;;;;;;;84.40;7.38;;;;;;;5.30;100.00;97571.44;5002802;28;20409;-55
2022/04/19 02:42:11;;;;;;;103.72;8.52;;;;;;;5.67;100.00;97567.00;5002673;28;20037;-56
2022/04/19 02:44:37;;;;;;;81.05;7.85;;;;;;;5.10;100.00;97573.72;5001137;28;20030;-55
2022/04/19 02:47:03;;;;;;;87.35;7.88;;;;;;;4.91;100.00;97575.94;4999190;28;20033;-57
2022/04/19 02:49:29;;;;;;;80.57;7.15;;;;;;;5.20;100.00;97568.25;5003173;28;20068;-57
2022/04/19 02:51:55;;;;;;;90.43;7.57;;;;;;;5.47;100.00;97572.72;5000768;28;20125;-56
2022/04/19 02:54:21;;;;;;;91.20;8.48;;;;;;;5.56;100.00;97568.13;5000029;28;20054;-55
2022/04/19 02:56:47;;;;;;;80.22;6.97;;;;;;;5.28;100.00;97572.38;4997738;28;20034;-56
2022/04/19 02:59:13;;;;;;;91.80;7.43;;;;;;;5.20;100.00;97568.25;5002452;28;20045;-56
2022/04/19 03:01:38;;;;;;;93.95;7.25;;;;;;;6.31;100.00;97572.91;5002296;28;20121;-57
2022/04/19 03:04:04;;;;;;;74.57;6.57;;;;;;;6.52;100.00;97575.72;5001323;28;20022;-58
2022/04/19 03:06:29;;;;;;;91.72;7.60;;;;;;;5.90;100.00;97562.03;4999077;28;20038;-56
2022/04/19 03:08:54;;;;;;;80.90;6.40;;;;;;;7.65;100.00;97565.84;5004487;28;20575;-57
2022/04/19 03:11:20;;;;;;;81.15;6.63;;;;;;;6.79;100.00;97562.78;5001445;28;20088;-56
2022/04/19 03:13:45;;;;;;;76.45;6.40;;;;;;;7.21;100.00;97555.28;4999434;28;20144;-56
2022/04/19 03:16:13;;;;;;;82.82;7.45;;;;;;;5.08;100.00;97560.81;5001203;28;20057;-56
2022/04/19 03:18:43;;;;;;;92.80;7.97;;;;;;;4.62;100.00;97561.97;5004403;28;20048;-56
2022/04/19 03:21:12;;;;;;;87.80;7.95;;;;;;;4.31;100.00;97565.28;4999569;28;20038;-57
2022/04/19 03:29:07;;;;;;;84.95;8.07;;;;;;;4.05;100.00;97563.28;5002778;28;20111;-57
2022/04/19 03:31:33;;;;;;;86.00;8.07;;;;;;;4.10;100.00;97558.88;4998445;28;20494;-56
2022/04/19 03:33:59;;;;;;;95.30;8.30;;;;;;;4.41;100.00;97563.31;5001132;28;20032;-56
2022/04/19 03:36:24;;;;;;;86.22;6.80;;;;;;;5.59;100.00;97557.72;5000047;28;20049;-56
2022/04/19 03:38:50;;;;;;;86.10;7.40;;;;;;;5.92;100.00;97552.47;5000938;28;20798;-56
2022/04/19 03:41:15;;;;;;;81.88;7.07;;;;;;;5.88;100.00;97543.09;5000990;28;20099;-56
2022/04/19 03:43:41;;;;;;;94.60;7.47;;;;;;;5.13;100.00;97553.78;5002746;28;20490;-57
2022/04/19 03:46:08;;;;;;;86.63;6.85;;;;;;;5.11;100.00;97555.56;4999717;28;20037;-56
2022/04/19 03:48:33;;;;;;;96.25;7.78;;;;;;;4.68;100.00;97550.66;5001584;28;20076;-57
2022/04/19 03:50:59;;;;;;;89.70;7.40;;;;;;;4.90;100.00;97551.78;5003560;28;20046;-56
2022/04/19 03:53:25;;;;;;;88.88;7.43;;;;;;;4.39;100.00;97552.19;5001910;28;20440;-57
2022/04/19 03:55:50;;;;;;;79.78;6.85;;;;;;;5.14;100.00;97560.66;5001003;28;20037;-57
2022/04/19 03:58:16;;;;;;;88.65;7.65;;;;;;;3.92;100.00;97556.69;5001735;28;20025;-55
2022/04/19 04:00:41;;;;;;;78.35;7.07;;;;;;;4.09;100.00;97558.91;5000567;28;20088;-55
2022/04/19 04:03:06;;;;;;;72.97;6.28;;;;;;;4.49;100.00;97560.59;5000150;28;20029;-56
2022/04/19 04:05:32;;;;;;;86.53;7.43;;;;;;;4.01;100.00;97559.91;4998675;28;20030;-55
2022/04/19 04:07:58;;;;;;;93.90;8.35;;;;;;;4.20;100.00;97567.25;4999654;28;20025;-55
2022/04/19 04:10:24;;;;;;;86.10;7.85;;;;;;;3.97;100.00;97560.88;4999192;28;20052;-57
2022/04/19 04:12:49;;;;;;;91.22;7.03;;;;;;;3.97;100.00;97573.78;4998296;28;20029;-56
2022/04/19 04:15:15;;;;;;;88.60;6.97;;;;;;;5.00;100.00;97570.53;4995691;28;20054;-57
2022/04/19 04:17:40;;;;;;;88.15;8.38;;;;;;;5.09;100.00;97570.28;4998594;28;20519;-55
2022/04/19 04:20:06;;;;;;;86.60;7.20;;;;;;;6.22;100.00;97568.00;4997685;28;20930;-56
2022/04/19 04:22:32;;;;;;;80.45;7.72;;;;;;;3.93;100.00;97572.13;5000477;28;20026;-56
2022/04/19 04:24:57;;;;;;;88.18;8.80;;;;;;;3.35;100.00;97579.31;5001387;28;20099;-57
2022/04/19 04:27:23;;;;;;;77.30;7.63;;;;;;;4.20;100.00;97582.75;5000458;28;20038;-56
2022/04/19 04:29:48;;;;;;;121.22;9.00;;;;;;;5.87;100.00;97572.44;4998189;28;20068;-56
2022/04/19 04:32:14;;;;;;;82.45;7.05;;;;;;;5.12;100.00;97572.78;4997993;28;20049;-57
2022/04/19 04:34:39;;;;;;;77.53;7.13;;;;;;;3.75;100.00;97568.22;4999294;28;20060;-56
2022/04/19 04:37:05;;;;;;;89.65;8.60;;;;;;;3.69;100.00;97573.47;4999635;28;20048;-58
2022/04/19 04:39:30;;;;;;;84.70;7.60;;;;;;;3.86;100.00;97568.84;4998491;28;20105;-57
2022/04/19 04:41:55;;;;;;;89.03;7.50;;;;;;;5.23;100.00;97569.91;4995131;28;20508;-58
2022/04/19 04:44:21;;;;;;;97.90;9.25;;;;;;;3.88;100.00;97571.38;4998356;28;20058;-56
2022/04/19 04:49:36;;;;;;;102.85;9.50;;;;;;;3.62;100.00;97570.19;4998576;28;20048;-57
2022/04/19 04:52:09;;;;;;;98.43;9.25;;;;;;;3.43;100.00;97577.41;4998141;28;20061;-56
2022/04/19 04:54:36;;;;;;;98.80;9.40;;;;;;;3.58;100.00;97576.28;5000066;28;20029;-56
2022/04/19 04:57:03;;;;;;;91.13;9.43;;;;;;;3.48;100.00;97569.63;4998778;28;20034;-56
2022/04/19 04:59:30;;;;;;;94.13;9.77;;;;;;;3.74;100.00;97570.81;4998908;28;20036;-55
2022/04/19 05:01:56;;;;;;;75.15;8.70;;;;;;;3.88;100.00;97567.94;4999367;28;20046;-57
2022/04/19 05:04:21;;;;;;;84.13;8.75;;;;;;;3.73;100.00;97571.69;5001238;28;20030;-56
2022/04/19 05:06:47;;;;;;;75.28;8.70;;;;;;;3.66;100.00;97576.16;4997570;28;20428;-57
2022/04/19 05:09:12;;;;;;;87.60;9.15;;;;;;;4.10;100.00;97565.75;4999558;28;20113;-56
2022/04/19 05:11:37;;;;;;;104.18;9.43;;;;;;;4.77;100.00;97565.91;4995301;28;20645;-58
2022/04/19 05:14:03;;;;;;;73.53;7.50;;;;;;;5.25;100.00;97562.13;4998458;28;20461;-58
2022/04/19 05:16:28;;;;;;;81.68;7.10;;;;;;;5.42;100.00;97559.91;4983145;28;20041;-56
2022/04/19 05:18:54;;;;;;;85.38;7.50;;;;;;;5.01;100.00;97569.63;4999566;28;20030;-57
2022/04/19 05:21:20;;;;;;;84.50;7.60;;;;;;;5.56;100.00;97569.88;4997559;28;20506;-57
2022/04/19 05:23:45;;;;;;;72.10;7.78;;;;;;;5.37;100.00;97574.72;4997952;28;20242;-56
2022/04/19 05:26:10;;;;;;;82.30;7.80;;;;;;;5.58;100.00;97566.34;4998166;28;20582;-56
2022/04/19 05:28:36;;;;;;;90.30;8.65;;;;;;;6.48;100.00;97566.34;4996884;28;20018;-56
2022/04/19 05:31:01;;;;;;;87.68;8.15;;;;;;;6.98;100.00;97568.19;5000171;28;20041;-56
2022/04/19 05:33:26;;;;;;;78.75;8.07;;;;;;;7.67;100.00;97565.81;4998536;28;20427;-57
2022/04/19 05:35:52;;;;;;;83.70;8.35;;;;;;;9.56;100.00;97560.88;4998601;28;20037;-57
2022/04/19 05:38:17;;;;;;;77.78;7.88;;;;;;;11.44;84.57;97553.75;4996213;28;20026;-58
2022/04/19 05:40:42;;;;;;;82.75;8.50;;;;;;;12.07;75.16;97553.91;4995967;28;20037;-60
2022/04/19 05:43:08;;;;;;;86.15;8.05;;;;;;;12.29;67.37;97552.72;4999644;28;20215;-57
2022/04/19 05:45:33;;;;;;;79.55;7.88;;;;;;;12.52;67.71;97549.69;4997662;28;20213;-56
2022/04/19 05:47:58;;;;;;;81.90;8.23;;;;;;;14.96;58.46;97550.69;4997459;28;20033;-58
2022/04/19 05:50:24;;;;;;;88.18;7.95;;;;;;;13.19;59.94;97549.34;4997232;28;20603;-57
2022/04/19 05:52:50;;;;;;;82.88;8.70;;;;;;;13.40;61.09;97554.28;4998185;28;20025;-57
2022/04/19 05:55:15;;;;;;;89.85;8.65;;;;;;;13.94;58.62;97548.41;4996891;28;20036;-58
2022/04/19 05:57:41;;;;;;;69.20;7.38;;;;;;;14.66;55.39;97549.13;4997763;28;20366;-59
2022/04/19 06:00:07;;;;;;;87.28;8.63;;;;;;;14.70;54.89;97550.59;4997624;28;20108;-58
2022/04/19 06:05:16;;;;;;;98.45;9.23;;;;;;;14.06;56.54;97545.88;4997521;28;20036;-57
2022/04/19 06:07:46;;;;;;;90.97;8.65;;;;;;;13.26;58.08;97550.69;4999765;28;20026;-55
2022/04/19 06:10:12;;;;;;;80.47;8.63;;;;;;;14.46;56.00;97548.63;5000124;28;20021;-57
2022/04/19 06:12:38;;;;;;;75.55;7.85;;;;;;;14.94;54.84;97549.94;5002725;28;20083;-57
2022/04/19 06:15:04;;;;;;;74.57;8.07;;;;;;;15.67;51.75;97553.81;5002089;28;20057;-57
2022/04/19 06:17:32;;;;;;;72.60;8.27;;;;;;;14.87;53.79;97546.03;4999765;28;20078;-58
2022/04/19 06:20:01;;;;;;;83.25;8.82;;;;;;;14.39;54.77;97551.72;5002016;28;20235;-56
2022/04/19 06:22:26;;;;;;;83.28;8.90;;;;;;;15.12;53.04;97548.72;4999027;28;20137;-58
2022/04/19 06:24:51;;;;;;;88.53;8.75;;;;;;;15.76;52.11;97547.97;5000114;28;20056;-58
2022/04/19 06:27:17;;;;;;;69.38;7.95;;;;;;;16.78;50.40;97538.97;5002589;28;20042;-58
2022/04/19 06:29:42;;;;;;;76.40;8.35;;;;;;;15.52;51.49;97543.41;5000865;28;20866;-56
2022/04/19 06:32:08;;;;;;;68.85;7.97;;;;;;;15.75;50.92;97543.63;5000133;28;20080;-57
2022/04/19 06:34:33;;;;;;;73.38;8.38;;;;;;;16.22;50.34;97549.16;5001619;28;20022;-57
2022/04/19 06:36:58;;;;;;;83.07;8.68;;;;;;;17.24;47.89;97542.59;5001098;28;20053;-58
2022/04/19 06:39:24;;;;;;;75.53;8.48;;;;;;;17.49;45.03;97544.22;5001586;28;20502;-57
2022/04/19 06:41:50;;;;;;;64.82;7.82;;;;;;;16.03;48.42;97544.34;5000937;28;20050;-56
2022/04/19 06:44:16;;;;;;;73.68;8.15;;;;;;;17.38;47.48;97541.56;5004097;28;20164;-56
2022/04/19 06:46:47;;;;;;;72.45;8.10;;;;;;;18.59;45.60;97540.00;4999492;28;20120;-58
2022/04/19 06:49:13;;;;;;;74.00;8.48;;;;;;;19.46;43.18;97544.31;5001148;28;20033;-57
2022/04/19 06:51:39;;;;;;;82.75;8.45;;;;;;;20.91;40.32;97537.88;5000601;28;20046;-57
2022/04/19 06:54:04;;;;;;;68.43;7.60;;;;;;;20.77;38.59;97530.38;5002256;28;20033;-57
2022/04/19 06:56:31;;;;;;;61.60;7.28;;;;;;;20.11;39.50;97534.38;4998395;28;20255;-59
2022/04/19 06:58:56;;;;;;;75.03;7.95;;;;;;;18.23;42.63;97539.38;5002727;28;20022;-58
2022/04/19 07:01:23;;;;;;;67.32;7.13;;;;;;;18.36;42.20;97527.81;4999340;28;20049;-56
2022/04/19 07:03:49;;;;;;;72.43;7.28;;;;;;;18.78;42.63;97530.56;4998900;28;20048;-56
2022/04/19 07:06:14;;;;;;;93.15;13.90;;;;;;;17.33;45.34;97528.72;4995887;28;20042;-59
2022/04/19 07:08:39;;;;;;;68.43;7.97;;;;;;;18.37;42.60;97532.13;5002874;28;20049;-59
2022/04/19 07:11:05;;;;;;;72.00;8.40;;;;;;;18.67;41.75;97536.72;4999250;28;20137;-58
2022/04/19 07:13:30;;;;;;;90.18;8.90;;;;;;;16.65;45.02;97527.63;5001462;28;20030;-58
2022/04/19 07:15:56;;;;;;;85.90;8.57;;;;;;;14.35;49.83;97534.47;5000390;28;20176;-57
2022/04/19 07:18:24;;;;;;;81.53;8.40;;;;;;;16.60;46.98;97530.59;5001293;28;20494;-57
2022/04/19 07:29:02;;;;;;;82.47;7.97;;;;;;;17.63;45.76;97527.34;4999151;28;20506;-56
2022/04/19 07:31:28;;;;;;;79.70;7.90;;;;;;;17.74;45.98;97527.34;4999408;28;20833;-57
2022/04/19 07:33:54;;;;;;;82.93;8.30;;;;;;;18.57;45.12;97525.25;5002155;28;20029;-57
2022/04/19 07:36:20;;;;;;;78.05;7.57;;;;;;;18.07;45.81;97523.06;5001706;28;20140;-59
2022/04/19 07:38:45;;;;;;;80.72;7.72;;;;;;;17.31;47.40;97517.47;5000167;28;20041;-56
2022/04/19 07:41:11;;;;;;;88.85;8.40;;;;;;;17.04;47.54;97515.09;4999671;28;20723;-57
2022/04/19 07:43:36;;;;;;;100.35;9.68;;;;;;;16.85;47.96;97510.38;5000275;28;20030;-57
2022/04/19 07:46:04;;;;;;;78.18;7.82;;;;;;;16.70;47.78;97509.69;4996963;28;20561;-57
2022/04/19 07:48:30;;;;;;;62.42;6.82;;;;;;;20.31;41.69;97508.78;5000689;28;20599;-60
2022/04/19 07:50:55;;;;;;;81.03;7.57;;;;;;;20.68;39.87;97510.00;4996998;28;20512;-57
2022/04/19 07:53:21;;;;;;;86.20;8.30;;;;;;;22.17;38.44;97500.59;4999098;28;20026;-55
2022/04/19 07:55:47;;;;;;;63.03;6.80;;;;;;;21.40;38.84;97505.19;5000177;28;20092;-56
2022/04/19 07:58:12;;;;;;;91.22;8.43;;;;;;;23.38;37.26;97498.44;4999603;28;20029;-57
2022/04/19 08:00:37;;;;;;;66.07;7.20;;;;;;;22.32;37.00;97499.13;4999180;28;20091;-58
2022/04/19 08:03:03;;;;;;;84.43;17.83;;;;;;;24.05;34.42;97493.34;5002408;28;20056;-58
2022/04/19 08:05:28;;;;;;;69.75;7.60;;;;;;;25.73;32.71;97491.31;4999351;28;20991;-59
2022/04/19 08:07:53;;;;;;;68.15;7.70;;;;;;;24.69;32.70;97485.72;4998932;28;20069;-58
2022/04/19 08:10:20;;;;;;;57.53;7.00;;;;;;;26.29;31.34;97486.78;5000103;28;20083;-59
2022/04/19 08:12:45;;;;;;;63.60;7.60;;;;;;;24.71;32.37;97481.03;5000703;28;20041;-57
2022/04/19 08:15:11;;;;;;;59.35;6.88;;;;;;;25.57;32.40;97481.53;4998476;28;20099;-57
2022/04/19 08:17:37;;;;;;;65.95;7.88;;;;;;;26.06;30.66;97480.56;5002191;28;20092;-58
2022/04/19 08:20:04;;;;;;;60.38;7.57;;;;;;;28.06;27.65;97474.09;4998035;28;20025;-57
2022/04/19 08:22:30;;;;;;;59.63;7.75;;;;;;;26.69;28.23;97466.19;4998552;28;20034;-58
2022/04/19 08:24:55;;;;;;;83.72;9.25;;;;;;;25.08;30.31;97476.22;4996675;28;20034;-59
2022/04/19 08:27:21;;;;;;;68.95;8.73;;;;;;;26.21;28.89;97461.94;4997749;28;20038;-57
2022/04/19 08:29:47;;;;;;;67.78;8.48;;;;;;;26.49;28.51;97460.44;5000931;28;20022;-58
2022/04/19 08:32:13;;;;;;;62.17;6.93;;;;;;;25.35;30.12;97461.72;4998995;28;20042;-58
2022/04/19 08:34:39;;;;;;;67.32;8.40;;;;;;;28.34;26.29;97464.53;4996669;28;20083;-57
2022/04/19 08:37:05;;;;;;;53.17;7.35;;;;;;;25.31;29.18;97466.56;4998484;28;20704;-57
2022/04/19 08:39:31;;;;;;;60.15;7.32;;;;;;;27.12;27.17;97460.34;5000714;28;20049;-58
2022/04/19 08:41:57;;;;;;;68.00;8.35;;;;;;;26.86;27.60;97455.38;4997705;28;20129;-58
2022/04/19 08:44:22;;;;;;;60.72;7.78;;;;;;;26.32;28.02;97459.72;4998569;28;20902;-59
2022/04/19 08:46:47;;;;;;;62.25;7.65;;;;;;;24.55;30.05;97451.69;4997789;28;20419;-59
2022/04/19 08:49:15;;;;;;;64.47;8.02;;;;;;;24.41;29.83;97459.31;5000167;28;20596;-58
2022/04/19 08:51:41;;;;;;;63.22;7.60;;;;;;;25.29;28.99;97451.72;4999912;28;20045;-59
2022/04/19 08:59:37;;;;;;;70.35;8.07;;;;;;;23.42;31.47;97467.88;5001959;28;20041;-58
2022/04/19 09:02:05;;;;;;;69.20;8.35;;;;;;;23.64;30.83;97467.31;4996494;28;20050;-58
2022/04/19 09:04:30;;;;;;;60.42;6.20;;;;;;;25.28;31.21;97458.88;4999636;28;20499;-58
2022/04/19 09:06:57;;;;;;;87.75;8.23;;;;;;;23.18;31.43;97466.72;4998418;28;20050;-58
2022/04/19 09:09:25;;;;;;;66.70;6.85;;;;;;;22.21;33.47;97462.94;4997366;28;20733;-58
2022/04/19 09:11:52;;;;;;;65.40;7.68;;;;;;;21.12;34.58;97465.31;4997241;28;20111;-59
2022/04/19 09:14:18;;;;;;;68.90;7.43;;;;;;;22.74;32.93;97469.31;4996482;28;20491;-59
2022/04/19 09:16:44;;;;;;;69.28;7.75;;;;;;;24.14;31.68;97465.75;4997476;28;20095;-59
2022/04/19 09:19:10;;;;;;;69.00;7.80;;;;;;;21.53;33.24;97463.28;4998297;28;20030;-58
2022/04/19 09:21:40;;;;;;;73.40;7.60;;;;;;;23.70;31.66;97462.38;4997616;28;20046;-57
2022/04/19 09:24:26;;;;;;;61.50;6.05;;;;;;;22.71;32.77;97466.97;4999419;28;20672;-57
2022/04/19 09:26:51;;;;;;;70.15;6.82;;;;;;;24.62;30.63;97458.03;4996570;28;20045;-59
2022/04/19 09:29:27;;;;;;;71.18;6.93;;;;;;;23.20;31.38;97459.41;4997207;28;20097;-58
2022/04/19 09:31:58;;;;;;;73.68;7.13;;;;;;;23.55;31.82;97449.66;4998372;28;20052;-59
2022/04/19 09:34:28;;;;;;;78.18;6.95;;;;;;;25.23;30.08;97455.03;5000254;28;20029;-58
2022/04/19 09:37:07;;;;;;;56.72;6.43;;;;;;;23.80;30.86;97455.09;4997824;28;20753;-57
2022/04/19 09:39:34;;;;;;;75.38;7.38;;;;;;;23.93;30.85;97444.00;4997942;28;20033;-57
2022/04/19 09:42:08;;;;;;;70.43;7.75;;;;;;;25.01;30.24;97433.38;4998142;28;20099;-57
2022/04/19 09:44:38;;;;;;;71.40;7.07;;;;;;;21.97;33.37;97441.44;4998047;28;20293;-59
2022/04/19 09:47:05;;;;;;;79.13;10.50;;;;;;;22.73;33.28;97438.41;4998167;28;20041;-57
2022/04/19 09:49:48;;;;;;;70.90;6.38;;;;;;;24.62;31.17;97423.38;5000721;28;20021;-57
2022/04/19 09:52:43;;;;;;;65.95;6.63;;;;;;;24.58;30.90;97427.38;4994484;28;20099;-58
2022/04/19 09:55:11;;;;;;;68.35;6.82;;;;;;;22.76;32.45;97432.78;5000492;28;20593;-59
2022/04/19 09:57:40;;;;;;;74.90;7.38;;;;;;;23.93;32.32;97428.88;5001561;28;20113;-58
2022/04/19 10:00:14;;;;;;;67.20;6.55;;;;;;;24.90;30.98;97425.72;4999366;28;20104;-59
2022/04/19 10:08:10;;;;;;;72.35;6.30;;;;;;;24.47;30.98;97428.50;4998257;28;20037;-58
2022/04/19 10:10:37;;;;;;;83.95;7.40;;;;;;;23.98;31.78;97415.91;5001837;28;21044;-59
2022/04/19 10:13:03;;;;;;;74.32;6.70;;;;;;;22.37;33.45;97419.81;4997636;28;20061;-59
2022/04/19 10:15:31;;;;;;;57.60;6.07;;;;;;;24.03;32.26;97424.25;4993747;28;20471;-58
2022/04/19 10:17:56;;;;;;;74.32;6.63;;;;;;;24.03;32.21;97418.91;4998144;28;20033;-58
2022/04/19 10:20:33;;;;;;;75.25;6.97;;;;;;;24.69;30.61;97413.72;4997677;28;20428;-58
2022/04/19 10:23:08;;;;;;;94.45;8.07;;;;;;;23.04;32.92;97406.09;4998020;28;20530;-58
2022/04/19 10:25:45;;;;;;;79.60;6.90;;;;;;;23.75;32.56;97404.16;4997213;28;20042;-57
2022/04/19 10:28:28;;;;;;;78.95;7.32;;;;;;;23.66;32.90;97406.78;4997742;28;20152;-58
2022/04/19 10:30:53;;;;;;;81.60;7.50;;;;;;;22.01;33.12;97393.19;4996747;28;20056;-60
2022/04/19 10:33:52;;;;;;;73.25;6.43;;;;;;;23.70;32.56;97406.47;5000157;28;20034;-59
2022/04/19 10:36:18;;;;;;;65.03;6.68;;;;;;;21.78;33.75;97405.19;4996510;28;20029;-58
2022/04/19 10:38:46;;;;;;;69.53;7.15;;;;;;;21.25;34.63;97404.84;4998153;28;20030;-59
2022/04/19 10:41:31;;;;;;;67.47;6.65;;;;;;;21.58;34.63;97407.13;4999004;28;20655;-58
2022/04/19 10:44:46;;;;;;;69.78;6.63;;;;;;;21.23;35.42;97398.84;4997511;28;20028;-58
2022/04/19 10:47:20;;;;;;;66.75;5.90;;;;;;;23.32;34.01;97397.94;4996956;28;20045;-58
2022/04/19 10:49:45;;;;;;;81.38;7.00;;;;;;;21.58;35.97;97400.00;4997226;28;20036;-57
2022/04/19 10:52:36;;;;;;;81.90;7.20;;;;;;;20.36;37.40;97399.78;5000074;28;20045;-57
2022/04/19 10:55:06;;;;;;;71.75;6.38;;;;;;;21.71;36.01;97392.53;5000078;28;20351;-58
2022/04/19 11:00:29;;;;;;;72.43;6.53;;;;;;;21.93;34.54;97390.47;4998046;28;20743;-58
2022/04/19 11:03:02;;;;;;;76.32;6.90;;;;;;;20.85;36.52;97382.06;4999287;28;20044;-58
2022/04/19 11:05:44;;;;;;;78.70;6.70;;;;;;;23.02;34.28;97387.59;4998982;28;20038;-58
2022/04/19 11:08:25;;;;;;;74.45;6.57;;;;;;;19.86;36.07;97382.16;5002001;28;20033;-58
2022/04/19 11:10:56;;;;;;;78.93;6.90;;;;;;;20.86;36.36;97373.16;4999005;28;20073;-58
2022/04/19 11:13:22;;;;;;;78.65;6.88;;;;;;;22.01;34.79;97369.28;5000782;28;20230;-58
2022/04/19 11:16:05;;;;;;;70.88;6.40;;;;;;;21.88;35.39;97366.16;5002252;28;20038;-55
2022/04/19 11:18:36;;;;;;;74.10;7.10;;;;;;;19.66;36.65;97375.97;4999087;28;20048;-57
2022/04/19 11:21:04;;;;;;;62.72;6.13;;;;;;;20.67;36.63;97371.34;4999727;28;20049;-59
2022/04/19 11:23:41;;;;;;;91.45;7.30;;;;;;;22.72;34.23;97359.66;5003018;28;20026;-58
2022/04/19 11:26:08;;;;;;;67.53;6.07;;;;;;;22.27;34.55;97371.22;5000175;28;20042;-58
2022/04/19 11:28:34;;;;;;;89.55;7.40;;;;;;;23.04;33.78;97379.50;5000307;28;20036;-57
2022/04/19 11:31:00;;;;;;;81.40;6.85;;;;;;;22.69;33.59;97365.28;5001307;28;20037;-58
2022/04/19 11:33:33;;;;;;;73.75;6.88;;;;;;;20.49;35.28;97365.06;4998793;28;20773;-58
2022/04/19 11:36:06;;;;;;;80.75;6.78;;;;;;;19.04;37.59;97360.16;4999787;28;20033;-57
2022/04/19 11:38:43;;;;;;;82.70;6.88;;;;;;;20.37;37.13;97369.69;5000980;28;20786;-58
2022/04/19 11:46:44;;;;;;;83.93;7.15;;;;;;;19.84;37.91;97352.38;4998780;28;20118;-58
2022/04/19 11:49:30;;;;;;;69.70;5.88;;;;;;;20.13;37.74;97352.41;5000591;28;20045;-57
2022/04/19 11:51:58;;;;;;;69.70;5.60;;;;;;;21.44;36.33;97358.00;4999283;28;20052;-57
2022/04/19 11:54:25;;;;;;;66.75;5.88;;;;;;;20.73;35.80;97346.09;5001090;28;20601;-58
2022/04/19 11:56:58;;;;;;;83.80;6.55;;;;;;;20.14;37.84;97348.75;5001005;28;20030;-56
2022/04/19 11:59:30;;;;;;;77.10;5.90;;;;;;;22.30;35.73;97339.06;4999241;28;20108;-58
2022/04/19 12:01:56;;;;;;;72.90;5.97;;;;;;;20.33;36.64;97331.22;4998663;28;20046;-57
2022/04/19 12:04:22;;;;;;;72.47;5.68;;;;;;;21.68;35.43;97339.75;5000614;28;20057;-57